sensor_id;sensor_type;location;lat;lon;timestamp;P1;durP1;ratioP1;P2;durP2;ratioP2
59880;SDS011;45751;51.380;10.326;2024-02-26T00:02:02;3.70;;;1.00;;
59880;SDS011;45751;51.380;10.326;2024-02-26T00:04:28;7.40;;;1.88;;
59880;SDS011;45751;51.380;10.326;2024-02-26T00:06:54;4.75;;;1.33;;
59880;SDS011;45751;51.380;10.326;2024-02-26T00:09:22;5.15;;;1.35;;
59880;SDS011;45751;51.380;10.326;2024-02-26T00:11:48;2.97;;;1.02;;
59880;SDS011;45751;51.380;10.326;2024-02-26T00:14:14;5.13;;;1.73;;
59880;SDS011;45751;51.380;10.326;2024-02-26T00:16:40;5.43;;;1.27;;
59880;SDS011;45751;51.380;10.326;2024-02-26T00:19:06;4.78;;;1.42;;
59880;SDS011;45751;51.380;10.326;2024-02-26T00:21:32;4.70;;;1.98;;
59880;SDS011;45751;51.380;10.326;2024-02-26T00:23:58;5.88;;;1.50;;
59880;SDS011;45751;51.380;10.326;2024-02-26T00:26:24;4.90;;;1.77;;
59880;SDS011;45751;51.380;10.326;2024-02-26T00:28:50;4.07;;;0.88;;
59880;SDS011;45751;51.380;10.326;2024-02-26T00:31:15;4.80;;;1.35;;
59880;SDS011;45751;51.380;10.326;2024-02-26T00:33:41;5.32;;;1.25;;
59880;SDS011;45751;51.380;10.326;2024-02-26T00:36:07;3.70;;;0.93;;
59880;SDS011;45751;51.380;10.326;2024-02-26T00:38:33;5.20;;;1.85;;
59880;SDS011;45751;51.380;10.326;2024-02-26T00:40:59;3.85;;;1.00;;
59880;SDS011;45751;51.380;10.326;2024-02-26T00:43:24;3.17;;;1.13;;
59880;SDS011;45751;51.380;10.326;2024-02-26T00:45:50;5.60;;;2.15;;
59880;SDS011;45751;51.380;10.326;2024-02-26T00:48:17;4.57;;;1.42;;
59880;SDS011;45751;51.380;10.326;2024-02-26T00:50:43;4.25;;;1.40;;
59880;SDS011;45751;51.380;10.326;2024-02-26T00:53:09;6.03;;;1.98;;
59880;SDS011;45751;51.380;10.326;2024-02-26T00:55:34;2.80;;;0.82;;
59880;SDS011;45751;51.380;10.326;2024-02-26T00:58:00;5.05;;;1.63;;
59880;SDS011;45751;51.380;10.326;2024-02-26T01:00:26;4.05;;;1.77;;
59880;SDS011;45751;51.380;10.326;2024-02-26T01:02:52;4.38;;;1.13;;
59880;SDS011;45751;51.380;10.326;2024-02-26T01:05:17;4.15;;;0.95;;
59880;SDS011;45751;51.380;10.326;2024-02-26T01:07:43;4.88;;;1.20;;
59880;SDS011;45751;51.380;10.326;2024-02-26T01:10:09;5.40;;;1.67;;
59880;SDS011;45751;51.380;10.326;2024-02-26T01:12:35;4.65;;;1.60;;
59880;SDS011;45751;51.380;10.326;2024-02-26T01:15:01;4.57;;;1.58;;
59880;SDS011;45751;51.380;10.326;2024-02-26T01:17:28;4.03;;;1.35;;
59880;SDS011;45751;51.380;10.326;2024-02-26T01:19:54;5.85;;;1.48;;
59880;SDS011;45751;51.380;10.326;2024-02-26T01:22:20;3.80;;;0.88;;
59880;SDS011;45751;51.380;10.326;2024-02-26T01:24:46;4.75;;;1.27;;
59880;SDS011;45751;51.380;10.326;2024-02-26T01:27:12;3.20;;;1.13;;
59880;SDS011;45751;51.380;10.326;2024-02-26T01:29:39;4.68;;;1.52;;
59880;SDS011;45751;51.380;10.326;2024-02-26T01:32:05;4.57;;;1.45;;
59880;SDS011;45751;51.380;10.326;2024-02-26T01:34:31;4.00;;;1.35;;
59880;SDS011;45751;51.380;10.326;2024-02-26T01:36:57;5.35;;;1.80;;
59880;SDS011;45751;51.380;10.326;2024-02-26T01:39:23;4.45;;;1.27;;
59880;SDS011;45751;51.380;10.326;2024-02-26T01:41:48;3.55;;;1.13;;
59880;SDS011;45751;51.380;10.326;2024-02-26T01:44:14;3.05;;;0.90;;
59880;SDS011;45751;51.380;10.326;2024-02-26T01:46:40;5.68;;;1.10;;
59880;SDS011;45751;51.380;10.326;2024-02-26T01:49:06;4.63;;;1.48;;
59880;SDS011;45751;51.380;10.326;2024-02-26T01:51:37;4.65;;;1.58;;
59880;SDS011;45751;51.380;10.326;2024-02-26T01:54:04;3.75;;;1.13;;
59880;SDS011;45751;51.380;10.326;2024-02-26T01:56:31;5.60;;;1.00;;
59880;SDS011;45751;51.380;10.326;2024-02-26T01:58:57;3.38;;;0.95;;
59880;SDS011;45751;51.380;10.326;2024-02-26T02:01:25;2.67;;;0.75;;
59880;SDS011;45751;51.380;10.326;2024-02-26T02:03:52;4.38;;;0.95;;
59880;SDS011;45751;51.380;10.326;2024-02-26T02:06:19;2.55;;;0.88;;
59880;SDS011;45751;51.380;10.326;2024-02-26T02:08:46;4.10;;;1.20;;
59880;SDS011;45751;51.380;10.326;2024-02-26T02:11:12;3.75;;;1.13;;
59880;SDS011;45751;51.380;10.326;2024-02-26T02:13:40;2.72;;;0.98;;
59880;SDS011;45751;51.380;10.326;2024-02-26T02:16:06;5.70;;;1.23;;
59880;SDS011;45751;51.380;10.326;2024-02-26T02:18:32;3.80;;;1.10;;
59880;SDS011;45751;51.380;10.326;2024-02-26T02:21:01;5.22;;;1.23;;
59880;SDS011;45751;51.380;10.326;2024-02-26T02:23:27;4.65;;;1.40;;
59880;SDS011;45751;51.380;10.326;2024-02-26T02:25:53;3.65;;;1.58;;
59880;SDS011;45751;51.380;10.326;2024-02-26T02:28:21;3.15;;;1.20;;
59880;SDS011;45751;51.380;10.326;2024-02-26T02:30:47;4.18;;;1.67;;
59880;SDS011;45751;51.380;10.326;2024-02-26T02:33:14;4.30;;;1.30;;
59880;SDS011;45751;51.380;10.326;2024-02-26T02:35:41;4.47;;;1.50;;
59880;SDS011;45751;51.380;10.326;2024-02-26T02:38:07;3.33;;;0.95;;
59880;SDS011;45751;51.380;10.326;2024-02-26T02:40:32;3.65;;;1.17;;
59880;SDS011;45751;51.380;10.326;2024-02-26T02:42:58;6.00;;;1.63;;
59880;SDS011;45751;51.380;10.326;2024-02-26T02:45:25;3.42;;;1.05;;
59880;SDS011;45751;51.380;10.326;2024-02-26T02:47:51;5.00;;;1.63;;
59880;SDS011;45751;51.380;10.326;2024-02-26T02:50:16;6.30;;;1.30;;
59880;SDS011;45751;51.380;10.326;2024-02-26T02:52:42;3.88;;;1.30;;
59880;SDS011;45751;51.380;10.326;2024-02-26T02:55:08;3.13;;;0.80;;
59880;SDS011;45751;51.380;10.326;2024-02-26T02:57:33;3.10;;;0.88;;
59880;SDS011;45751;51.380;10.326;2024-02-26T02:59:59;3.58;;;0.93;;
59880;SDS011;45751;51.380;10.326;2024-02-26T03:02:25;4.60;;;1.75;;
59880;SDS011;45751;51.380;10.326;2024-02-26T03:04:51;3.03;;;0.82;;
59880;SDS011;45751;51.380;10.326;2024-02-26T03:07:17;4.43;;;1.52;;
59880;SDS011;45751;51.380;10.326;2024-02-26T03:09:42;4.32;;;1.33;;
59880;SDS011;45751;51.380;10.326;2024-02-26T03:12:08;5.63;;;1.00;;
59880;SDS011;45751;51.380;10.326;2024-02-26T03:14:34;3.35;;;1.02;;
59880;SDS011;45751;51.380;10.326;2024-02-26T03:17:00;8.15;;;1.67;;
59880;SDS011;45751;51.380;10.326;2024-02-26T03:19:25;5.72;;;2.10;;
59880;SDS011;45751;51.380;10.326;2024-02-26T03:21:51;2.78;;;1.05;;
59880;SDS011;45751;51.380;10.326;2024-02-26T03:24:17;4.22;;;1.10;;
59880;SDS011;45751;51.380;10.326;2024-02-26T03:26:42;3.38;;;0.90;;
59880;SDS011;45751;51.380;10.326;2024-02-26T03:29:08;3.78;;;1.17;;
59880;SDS011;45751;51.380;10.326;2024-02-26T03:31:34;4.72;;;1.63;;
59880;SDS011;45751;51.380;10.326;2024-02-26T03:34:00;4.38;;;1.33;;
59880;SDS011;45751;51.380;10.326;2024-02-26T03:36:26;5.38;;;1.35;;
59880;SDS011;45751;51.380;10.326;2024-02-26T03:38:52;5.03;;;1.50;;
59880;SDS011;45751;51.380;10.326;2024-02-26T03:41:17;2.92;;;1.27;;
59880;SDS011;45751;51.380;10.326;2024-02-26T03:43:43;3.75;;;1.30;;
59880;SDS011;45751;51.380;10.326;2024-02-26T03:46:10;4.90;;;1.50;;
59880;SDS011;45751;51.380;10.326;2024-02-26T03:48:38;6.10;;;1.85;;
59880;SDS011;45751;51.380;10.326;2024-02-26T03:51:05;6.15;;;1.65;;
59880;SDS011;45751;51.380;10.326;2024-02-26T03:53:31;5.63;;;1.73;;
59880;SDS011;45751;51.380;10.326;2024-02-26T03:55:56;4.13;;;1.27;;
59880;SDS011;45751;51.380;10.326;2024-02-26T03:58:22;4.28;;;1.40;;
59880;SDS011;45751;51.380;10.326;2024-02-26T04:00:48;3.90;;;1.13;;
59880;SDS011;45751;51.380;10.326;2024-02-26T04:03:14;4.10;;;1.48;;
59880;SDS011;45751;51.380;10.326;2024-02-26T04:05:39;4.85;;;1.55;;
59880;SDS011;45751;51.380;10.326;2024-02-26T04:08:05;5.63;;;1.67;;
59880;SDS011;45751;51.380;10.326;2024-02-26T04:10:33;6.25;;;1.48;;
59880;SDS011;45751;51.380;10.326;2024-02-26T04:13:04;4.90;;;1.70;;
59880;SDS011;45751;51.380;10.326;2024-02-26T04:15:31;4.18;;;1.15;;
59880;SDS011;45751;51.380;10.326;2024-02-26T04:17:57;4.68;;;1.58;;
59880;SDS011;45751;51.380;10.326;2024-02-26T04:20:23;5.60;;;2.05;;
59880;SDS011;45751;51.380;10.326;2024-02-26T04:22:48;6.57;;;1.90;;
59880;SDS011;45751;51.380;10.326;2024-02-26T04:25:14;4.68;;;1.52;;
59880;SDS011;45751;51.380;10.326;2024-02-26T04:27:40;5.25;;;2.17;;
59880;SDS011;45751;51.380;10.326;2024-02-26T04:30:06;3.65;;;1.27;;
59880;SDS011;45751;51.380;10.326;2024-02-26T04:32:33;6.63;;;2.08;;
59880;SDS011;45751;51.380;10.326;2024-02-26T04:34:59;5.93;;;1.40;;
59880;SDS011;45751;51.380;10.326;2024-02-26T04:37:26;6.18;;;2.53;;
59880;SDS011;45751;51.380;10.326;2024-02-26T04:39:59;5.53;;;1.73;;
59880;SDS011;45751;51.380;10.326;2024-02-26T04:42:26;7.13;;;2.10;;
59880;SDS011;45751;51.380;10.326;2024-02-26T04:44:52;5.63;;;1.92;;
59880;SDS011;45751;51.380;10.326;2024-02-26T04:47:17;6.60;;;1.98;;
59880;SDS011;45751;51.380;10.326;2024-02-26T04:49:43;6.10;;;2.15;;
59880;SDS011;45751;51.380;10.326;2024-02-26T04:52:09;6.75;;;2.72;;
59880;SDS011;45751;51.380;10.326;2024-02-26T04:54:35;5.40;;;1.83;;
59880;SDS011;45751;51.380;10.326;2024-02-26T04:57:00;4.80;;;1.98;;
59880;SDS011;45751;51.380;10.326;2024-02-26T04:59:26;8.30;;;3.30;;
59880;SDS011;45751;51.380;10.326;2024-02-26T05:01:52;10.25;;;3.50;;
59880;SDS011;45751;51.380;10.326;2024-02-26T05:04:18;8.55;;;2.67;;
59880;SDS011;45751;51.380;10.326;2024-02-26T05:06:44;8.25;;;2.38;;
59880;SDS011;45751;51.380;10.326;2024-02-26T05:09:09;7.10;;;3.17;;
59880;SDS011;45751;51.380;10.326;2024-02-26T05:11:35;11.07;;;3.50;;
59880;SDS011;45751;51.380;10.326;2024-02-26T05:14:01;9.02;;;3.65;;
59880;SDS011;45751;51.380;10.326;2024-02-26T05:16:27;12.50;;;4.18;;
59880;SDS011;45751;51.380;10.326;2024-02-26T05:18:55;8.35;;;3.53;;
59880;SDS011;45751;51.380;10.326;2024-02-26T05:21:21;9.32;;;3.10;;
59880;SDS011;45751;51.380;10.326;2024-02-26T05:23:46;11.80;;;4.60;;
59880;SDS011;45751;51.380;10.326;2024-02-26T05:26:18;13.27;;;5.63;;
59880;SDS011;45751;51.380;10.326;2024-02-26T05:28:46;14.32;;;6.18;;
59880;SDS011;45751;51.380;10.326;2024-02-26T05:31:13;15.93;;;7.35;;
59880;SDS011;45751;51.380;10.326;2024-02-26T05:33:39;14.23;;;5.75;;
59880;SDS011;45751;51.380;10.326;2024-02-26T05:36:05;18.33;;;8.63;;
59880;SDS011;45751;51.380;10.326;2024-02-26T05:38:31;21.88;;;8.90;;
59880;SDS011;45751;51.380;10.326;2024-02-26T05:41:00;14.55;;;6.57;;
59880;SDS011;45751;51.380;10.326;2024-02-26T05:43:26;14.15;;;6.78;;
59880;SDS011;45751;51.380;10.326;2024-02-26T05:45:52;17.23;;;6.38;;
59880;SDS011;45751;51.380;10.326;2024-02-26T05:48:18;15.93;;;6.30;;
59880;SDS011;45751;51.380;10.326;2024-02-26T05:50:45;14.35;;;6.80;;
59880;SDS011;45751;51.380;10.326;2024-02-26T05:53:14;15.15;;;5.57;;
59880;SDS011;45751;51.380;10.326;2024-02-26T05:55:40;19.60;;;7.93;;
59880;SDS011;45751;51.380;10.326;2024-02-26T05:58:06;18.58;;;9.00;;
59880;SDS011;45751;51.380;10.326;2024-02-26T06:00:32;17.70;;;6.32;;
59880;SDS011;45751;51.380;10.326;2024-02-26T06:03:00;18.30;;;9.07;;
59880;SDS011;45751;51.380;10.326;2024-02-26T06:05:27;26.10;;;9.50;;
59880;SDS011;45751;51.380;10.326;2024-02-26T06:07:53;20.10;;;7.20;;
59880;SDS011;45751;51.380;10.326;2024-02-26T06:10:21;17.70;;;8.40;;
59880;SDS011;45751;51.380;10.326;2024-02-26T06:12:47;20.65;;;9.75;;
59880;SDS011;45751;51.380;10.326;2024-02-26T06:15:13;27.00;;;10.57;;
59880;SDS011;45751;51.380;10.326;2024-02-26T06:17:38;25.45;;;12.45;;
59880;SDS011;45751;51.380;10.326;2024-02-26T06:20:04;18.30;;;8.30;;
59880;SDS011;45751;51.380;10.326;2024-02-26T06:22:31;20.67;;;10.20;;
59880;SDS011;45751;51.380;10.326;2024-02-26T06:24:57;20.10;;;9.05;;
59880;SDS011;45751;51.380;10.326;2024-02-26T06:27:23;17.55;;;8.15;;
59880;SDS011;45751;51.380;10.326;2024-02-26T06:29:49;18.08;;;10.23;;
59880;SDS011;45751;51.380;10.326;2024-02-26T06:32:15;19.13;;;7.47;;
59880;SDS011;45751;51.380;10.326;2024-02-26T06:34:40;24.52;;;7.97;;
59880;SDS011;45751;51.380;10.326;2024-02-26T06:37:07;22.70;;;8.43;;
59880;SDS011;45751;51.380;10.326;2024-02-26T06:39:33;15.68;;;7.22;;
59880;SDS011;45751;51.380;10.326;2024-02-26T06:41:59;15.98;;;7.97;;
59880;SDS011;45751;51.380;10.326;2024-02-26T06:44:27;19.95;;;8.85;;
59880;SDS011;45751;51.380;10.326;2024-02-26T06:49:24;18.42;;;8.07;;
59880;SDS011;45751;51.380;10.326;2024-02-26T06:51:50;17.10;;;8.73;;
59880;SDS011;45751;51.380;10.326;2024-02-26T06:54:15;21.05;;;8.32;;
59880;SDS011;45751;51.380;10.326;2024-02-26T06:56:41;22.92;;;11.15;;
59880;SDS011;45751;51.380;10.326;2024-02-26T06:59:07;19.00;;;8.80;;
59880;SDS011;45751;51.380;10.326;2024-02-26T07:01:33;20.65;;;8.13;;
59880;SDS011;45751;51.380;10.326;2024-02-26T07:03:58;19.70;;;8.75;;
59880;SDS011;45751;51.380;10.326;2024-02-26T07:06:24;20.17;;;10.07;;
59880;SDS011;45751;51.380;10.326;2024-02-26T07:08:50;23.38;;;8.45;;
59880;SDS011;45751;51.380;10.326;2024-02-26T07:11:16;26.63;;;9.95;;
59880;SDS011;45751;51.380;10.326;2024-02-26T07:13:42;19.92;;;8.82;;
59880;SDS011;45751;51.380;10.326;2024-02-26T07:16:09;21.55;;;9.57;;
59880;SDS011;45751;51.380;10.326;2024-02-26T07:18:35;17.13;;;8.88;;
59880;SDS011;45751;51.380;10.326;2024-02-26T07:21:04;21.85;;;7.85;;
59880;SDS011;45751;51.380;10.326;2024-02-26T07:23:29;17.30;;;8.80;;
59880;SDS011;45751;51.380;10.326;2024-02-26T07:25:56;20.20;;;9.85;;
59880;SDS011;45751;51.380;10.326;2024-02-26T07:28:22;19.63;;;9.82;;
59880;SDS011;45751;51.380;10.326;2024-02-26T07:30:48;21.23;;;10.73;;
59880;SDS011;45751;51.380;10.326;2024-02-26T07:33:13;23.98;;;9.93;;
59880;SDS011;45751;51.380;10.326;2024-02-26T07:35:39;28.75;;;13.32;;
59880;SDS011;45751;51.380;10.326;2024-02-26T07:38:05;24.67;;;12.15;;
59880;SDS011;45751;51.380;10.326;2024-02-26T07:40:31;22.30;;;10.35;;
59880;SDS011;45751;51.380;10.326;2024-02-26T07:42:56;22.15;;;9.98;;
59880;SDS011;45751;51.380;10.326;2024-02-26T07:45:22;19.58;;;7.88;;
59880;SDS011;45751;51.380;10.326;2024-02-26T07:47:48;19.23;;;8.05;;
59880;SDS011;45751;51.380;10.326;2024-02-26T07:50:14;20.02;;;9.55;;
59880;SDS011;45751;51.380;10.326;2024-02-26T07:52:40;20.75;;;8.68;;
59880;SDS011;45751;51.380;10.326;2024-02-26T07:55:06;15.50;;;7.35;;
59880;SDS011;45751;51.380;10.326;2024-02-26T07:57:32;20.63;;;6.93;;
59880;SDS011;45751;51.380;10.326;2024-02-26T08:00:01;16.95;;;8.15;;
59880;SDS011;45751;51.380;10.326;2024-02-26T08:02:29;18.80;;;9.13;;
59880;SDS011;45751;51.380;10.326;2024-02-26T08:04:55;23.77;;;8.73;;
59880;SDS011;45751;51.380;10.326;2024-02-26T08:07:21;16.55;;;8.73;;
59880;SDS011;45751;51.380;10.326;2024-02-26T08:09:47;20.13;;;9.30;;
59880;SDS011;45751;51.380;10.326;2024-02-26T08:12:13;22.77;;;9.23;;
59880;SDS011;45751;51.380;10.326;2024-02-26T08:14:39;18.67;;;7.75;;
59880;SDS011;45751;51.380;10.326;2024-02-26T08:17:05;16.02;;;7.43;;
59880;SDS011;45751;51.380;10.326;2024-02-26T08:19:31;20.40;;;8.45;;
59880;SDS011;45751;51.380;10.326;2024-02-26T08:21:56;19.02;;;8.07;;
59880;SDS011;45751;51.380;10.326;2024-02-26T08:24:23;15.68;;;7.32;;
59880;SDS011;45751;51.380;10.326;2024-02-26T08:26:48;18.80;;;7.00;;
59880;SDS011;45751;51.380;10.326;2024-02-26T08:29:14;19.58;;;8.38;;
59880;SDS011;45751;51.380;10.326;2024-02-26T08:31:40;15.68;;;7.78;;
59880;SDS011;45751;51.380;10.326;2024-02-26T08:34:06;22.63;;;9.98;;
59880;SDS011;45751;51.380;10.326;2024-02-26T08:36:32;17.77;;;9.07;;
59880;SDS011;45751;51.380;10.326;2024-02-26T08:38:59;18.58;;;9.27;;
59880;SDS011;45751;51.380;10.326;2024-02-26T08:41:25;20.65;;;8.02;;
59880;SDS011;45751;51.380;10.326;2024-02-26T08:43:51;14.43;;;6.25;;
59880;SDS011;45751;51.380;10.326;2024-02-26T08:46:16;19.45;;;8.25;;
59880;SDS011;45751;51.380;10.326;2024-02-26T08:48:42;23.88;;;10.10;;
59880;SDS011;45751;51.380;10.326;2024-02-26T08:51:09;21.58;;;9.48;;
59880;SDS011;45751;51.380;10.326;2024-02-26T08:53:38;19.80;;;9.60;;
59880;SDS011;45751;51.380;10.326;2024-02-26T08:56:04;18.30;;;9.18;;
59880;SDS011;45751;51.380;10.326;2024-02-26T08:58:30;19.00;;;8.13;;
59880;SDS011;45751;51.380;10.326;2024-02-26T09:00:56;43.90;;;21.92;;
59880;SDS011;45751;51.380;10.326;2024-02-26T09:03:22;43.78;;;20.45;;
59880;SDS011;45751;51.380;10.326;2024-02-26T09:05:48;37.47;;;14.07;;
59880;SDS011;45751;51.380;10.326;2024-02-26T09:08:14;23.17;;;10.77;;
59880;SDS011;45751;51.380;10.326;2024-02-26T09:10:40;18.95;;;9.73;;
59880;SDS011;45751;51.380;10.326;2024-02-26T09:13:06;19.65;;;10.05;;
59880;SDS011;45751;51.380;10.326;2024-02-26T09:15:32;20.77;;;9.18;;
59880;SDS011;45751;51.380;10.326;2024-02-26T09:17:58;23.17;;;9.75;;
59880;SDS011;45751;51.380;10.326;2024-02-26T09:20:24;23.50;;;9.27;;
59880;SDS011;45751;51.380;10.326;2024-02-26T09:22:50;19.67;;;8.35;;
59880;SDS011;45751;51.380;10.326;2024-02-26T09:25:16;22.45;;;8.93;;
59880;SDS011;45751;51.380;10.326;2024-02-26T09:27:43;19.98;;;9.57;;
59880;SDS011;45751;51.380;10.326;2024-02-26T09:30:10;22.27;;;9.88;;
59880;SDS011;45751;51.380;10.326;2024-02-26T09:32:37;23.33;;;10.25;;
59880;SDS011;45751;51.380;10.326;2024-02-26T09:35:03;20.27;;;9.27;;
59880;SDS011;45751;51.380;10.326;2024-02-26T09:37:29;17.25;;;8.57;;
59880;SDS011;45751;51.380;10.326;2024-02-26T09:39:55;25.60;;;12.40;;
59880;SDS011;45751;51.380;10.326;2024-02-26T09:42:21;23.00;;;11.98;;
59880;SDS011;45751;51.380;10.326;2024-02-26T09:44:51;24.05;;;9.00;;
59880;SDS011;45751;51.380;10.326;2024-02-26T09:47:20;17.55;;;9.05;;
59880;SDS011;45751;51.380;10.326;2024-02-26T09:49:48;21.13;;;9.70;;
59880;SDS011;45751;51.380;10.326;2024-02-26T09:52:15;25.25;;;9.77;;
59880;SDS011;45751;51.380;10.326;2024-02-26T09:54:42;22.05;;;8.88;;
59880;SDS011;45751;51.380;10.326;2024-02-26T09:57:12;24.43;;;9.03;;
59880;SDS011;45751;51.380;10.326;2024-02-26T09:59:42;15.65;;;8.27;;
59880;SDS011;45751;51.380;10.326;2024-02-26T10:02:12;21.55;;;8.75;;
59880;SDS011;45751;51.380;10.326;2024-02-26T10:04:42;18.15;;;8.75;;
59880;SDS011;45751;51.380;10.326;2024-02-26T10:07:11;19.65;;;8.55;;
59880;SDS011;45751;51.380;10.326;2024-02-26T10:09:38;16.42;;;9.40;;
59880;SDS011;45751;51.380;10.326;2024-02-26T10:12:05;18.48;;;9.68;;
59880;SDS011;45751;51.380;10.326;2024-02-26T10:14:33;23.58;;;11.15;;
59880;SDS011;45751;51.380;10.326;2024-02-26T10:17:00;40.55;;;19.23;;
59880;SDS011;45751;51.380;10.326;2024-02-26T10:19:29;19.20;;;9.23;;
59880;SDS011;45751;51.380;10.326;2024-02-26T10:21:56;15.98;;;8.45;;
59880;SDS011;45751;51.380;10.326;2024-02-26T10:24:23;13.30;;;7.78;;
59880;SDS011;45751;51.380;10.326;2024-02-26T10:26:50;15.35;;;8.50;;
59880;SDS011;45751;51.380;10.326;2024-02-26T10:29:20;12.13;;;6.80;;
59880;SDS011;45751;51.380;10.326;2024-02-26T10:31:46;15.10;;;7.45;;
59880;SDS011;45751;51.380;10.326;2024-02-26T10:34:14;13.57;;;6.90;;
59880;SDS011;45751;51.380;10.326;2024-02-26T10:36:40;16.02;;;6.40;;
59880;SDS011;45751;51.380;10.326;2024-02-26T10:39:07;15.50;;;6.80;;
59880;SDS011;45751;51.380;10.326;2024-02-26T10:41:33;15.98;;;6.95;;
59880;SDS011;45751;51.380;10.326;2024-02-26T10:43:59;17.02;;;7.50;;
59880;SDS011;45751;51.380;10.326;2024-02-26T10:46:25;20.75;;;7.50;;
59880;SDS011;45751;51.380;10.326;2024-02-26T10:48:52;48.67;;;23.77;;
59880;SDS011;45751;51.380;10.326;2024-02-26T10:51:25;27.77;;;12.75;;
59880;SDS011;45751;51.380;10.326;2024-02-26T10:53:54;14.57;;;7.22;;
59880;SDS011;45751;51.380;10.326;2024-02-26T10:56:27;15.13;;;7.47;;
59880;SDS011;45751;51.380;10.326;2024-02-26T10:58:58;14.60;;;7.38;;
59880;SDS011;45751;51.380;10.326;2024-02-26T11:01:24;12.98;;;6.95;;
59880;SDS011;45751;51.380;10.326;2024-02-26T11:03:52;15.20;;;7.38;;
59880;SDS011;45751;51.380;10.326;2024-02-26T11:06:19;18.08;;;6.90;;
59880;SDS011;45751;51.380;10.326;2024-02-26T11:08:49;15.10;;;7.45;;
59880;SDS011;45751;51.380;10.326;2024-02-26T11:11:19;14.90;;;7.28;;
59880;SDS011;45751;51.380;10.326;2024-02-26T11:13:48;13.20;;;6.70;;
59880;SDS011;45751;51.380;10.326;2024-02-26T11:16:20;13.98;;;7.47;;
59880;SDS011;45751;51.380;10.326;2024-02-26T11:21:16;15.25;;;6.47;;
59880;SDS011;45751;51.380;10.326;2024-02-26T11:23:52;19.48;;;8.57;;
59880;SDS011;45751;51.380;10.326;2024-02-26T11:26:18;18.70;;;7.95;;
59880;SDS011;45751;51.380;10.326;2024-02-26T11:28:46;24.48;;;10.70;;
59880;SDS011;45751;51.380;10.326;2024-02-26T11:31:13;23.55;;;11.52;;
59880;SDS011;45751;51.380;10.326;2024-02-26T11:33:39;16.75;;;7.35;;
59880;SDS011;45751;51.380;10.326;2024-02-26T11:36:09;15.55;;;6.47;;
59880;SDS011;45751;51.380;10.326;2024-02-26T11:38:39;12.82;;;7.28;;
59880;SDS011;45751;51.380;10.326;2024-02-26T11:41:05;14.38;;;7.15;;
59880;SDS011;45751;51.380;10.326;2024-02-26T11:43:51;14.40;;;7.30;;
59880;SDS011;45751;51.380;10.326;2024-02-26T11:51:52;12.30;;;5.95;;
59880;SDS011;45751;51.380;10.326;2024-02-26T11:54:38;14.40;;;6.63;;
59880;SDS011;45751;51.380;10.326;2024-02-26T11:59:48;14.20;;;6.68;;
59880;SDS011;45751;51.380;10.326;2024-02-26T12:05:20;17.90;;;5.63;;
59880;SDS011;45751;51.380;10.326;2024-02-26T12:07:55;14.10;;;7.65;;
59880;SDS011;45751;51.380;10.326;2024-02-26T12:10:32;15.90;;;7.15;;
59880;SDS011;45751;51.380;10.326;2024-02-26T12:13:05;15.13;;;6.82;;
59880;SDS011;45751;51.380;10.326;2024-02-26T12:15:32;22.30;;;11.77;;
59880;SDS011;45751;51.380;10.326;2024-02-26T12:18:02;28.67;;;14.27;;
59880;SDS011;45751;51.380;10.326;2024-02-26T12:20:30;12.90;;;7.05;;
59880;SDS011;45751;51.380;10.326;2024-02-26T12:22:56;12.55;;;6.10;;
59880;SDS011;45751;51.380;10.326;2024-02-26T12:25:26;14.95;;;6.78;;
59880;SDS011;45751;51.380;10.326;2024-02-26T12:27:54;14.77;;;6.97;;
59880;SDS011;45751;51.380;10.326;2024-02-26T12:30:20;18.35;;;6.07;;
59880;SDS011;45751;51.380;10.326;2024-02-26T12:32:47;15.73;;;6.57;;
59880;SDS011;45751;51.380;10.326;2024-02-26T12:35:14;14.18;;;6.70;;
59880;SDS011;45751;51.380;10.326;2024-02-26T12:37:41;16.92;;;5.85;;
59880;SDS011;45751;51.380;10.326;2024-02-26T12:40:11;11.73;;;4.73;;
59880;SDS011;45751;51.380;10.326;2024-02-26T12:42:38;15.45;;;5.85;;
59880;SDS011;45751;51.380;10.326;2024-02-26T12:45:07;12.82;;;5.95;;
59880;SDS011;45751;51.380;10.326;2024-02-26T12:47:38;11.13;;;5.13;;
59880;SDS011;45751;51.380;10.326;2024-02-26T12:50:04;15.55;;;5.05;;
59880;SDS011;45751;51.380;10.326;2024-02-26T12:52:32;11.23;;;5.55;;
59880;SDS011;45751;51.380;10.326;2024-02-26T12:54:59;14.00;;;6.45;;
59880;SDS011;45751;51.380;10.326;2024-02-26T12:57:27;11.05;;;5.25;;
59880;SDS011;45751;51.380;10.326;2024-02-26T12:59:55;11.95;;;5.10;;
59880;SDS011;45751;51.380;10.326;2024-02-26T13:02:22;10.68;;;5.80;;
59880;SDS011;45751;51.380;10.326;2024-02-26T13:04:48;12.77;;;5.03;;
59880;SDS011;45751;51.380;10.326;2024-02-26T13:07:14;11.38;;;5.15;;
59880;SDS011;45751;51.380;10.326;2024-02-26T13:09:40;11.15;;;5.47;;
59880;SDS011;45751;51.380;10.326;2024-02-26T13:12:06;13.02;;;6.03;;
59880;SDS011;45751;51.380;10.326;2024-02-26T13:14:33;10.57;;;5.20;;
59880;SDS011;45751;51.380;10.326;2024-02-26T13:16:59;21.08;;;9.82;;
59880;SDS011;45751;51.380;10.326;2024-02-26T13:19:25;18.98;;;8.75;;
59880;SDS011;45751;51.380;10.326;2024-02-26T13:21:53;13.40;;;7.10;;
59880;SDS011;45751;51.380;10.326;2024-02-26T13:24:19;12.57;;;6.13;;
59880;SDS011;45751;51.380;10.326;2024-02-26T13:26:45;16.42;;;7.07;;
59880;SDS011;45751;51.380;10.326;2024-02-26T13:29:18;13.43;;;6.25;;
59880;SDS011;45751;51.380;10.326;2024-02-26T13:31:43;12.73;;;5.35;;
59880;SDS011;45751;51.380;10.326;2024-02-26T13:34:09;15.57;;;7.18;;
59880;SDS011;45751;51.380;10.326;2024-02-26T13:36:35;13.88;;;6.07;;
59880;SDS011;45751;51.380;10.326;2024-02-26T13:39:01;12.75;;;5.60;;
59880;SDS011;45751;51.380;10.326;2024-02-26T13:41:30;14.75;;;6.40;;
59880;SDS011;45751;51.380;10.326;2024-02-26T13:43:55;12.05;;;5.97;;
59880;SDS011;45751;51.380;10.326;2024-02-26T13:46:23;29.08;;;13.30;;
59880;SDS011;45751;51.380;10.326;2024-02-26T13:48:48;38.58;;;18.48;;
59880;SDS011;45751;51.380;10.326;2024-02-26T13:51:14;25.63;;;10.93;;
59880;SDS011;45751;51.380;10.326;2024-02-26T13:53:40;15.75;;;7.43;;
59880;SDS011;45751;51.380;10.326;2024-02-26T13:56:06;13.73;;;6.25;;
59880;SDS011;45751;51.380;10.326;2024-02-26T13:58:32;14.25;;;6.32;;
59880;SDS011;45751;51.380;10.326;2024-02-26T14:00:58;12.23;;;5.45;;
59880;SDS011;45751;51.380;10.326;2024-02-26T14:03:24;19.05;;;8.25;;
59880;SDS011;45751;51.380;10.326;2024-02-26T14:05:51;17.13;;;7.22;;
59880;SDS011;45751;51.380;10.326;2024-02-26T14:08:17;13.77;;;6.63;;
59880;SDS011;45751;51.380;10.326;2024-02-26T14:10:43;16.77;;;6.60;;
59880;SDS011;45751;51.380;10.326;2024-02-26T14:13:09;13.85;;;6.05;;
59880;SDS011;45751;51.380;10.326;2024-02-26T14:15:35;14.32;;;6.68;;
59880;SDS011;45751;51.380;10.326;2024-02-26T14:18:01;13.77;;;6.20;;
59880;SDS011;45751;51.380;10.326;2024-02-26T14:20:29;11.68;;;5.20;;
59880;SDS011;45751;51.380;10.326;2024-02-26T14:22:54;11.35;;;5.35;;
59880;SDS011;45751;51.380;10.326;2024-02-26T14:25:21;10.05;;;4.72;;
59880;SDS011;45751;51.380;10.326;2024-02-26T14:27:47;12.05;;;5.90;;
59880;SDS011;45751;51.380;10.326;2024-02-26T14:30:13;10.35;;;4.72;;
59880;SDS011;45751;51.380;10.326;2024-02-26T14:32:40;17.30;;;7.55;;
59880;SDS011;45751;51.380;10.326;2024-02-26T14:35:06;24.23;;;12.10;;
59880;SDS011;45751;51.380;10.326;2024-02-26T14:37:34;17.05;;;9.18;;
59880;SDS011;45751;51.380;10.326;2024-02-26T14:40:00;14.48;;;5.97;;